Terminal Aerodrome Forecast
Issued by NWS

Home | Current Version | Previous Version | Text Only | Print | Product List | Glossary On
Versions: 1 2 3 4 5 6 7 8 9 10 11 12 13 14 15 16 17 18 19
478
FTUS46 KLOX 252339
TAFWJF
TAF
KWJF 252339Z 2600/2624 23017G25KT P6SM OVC100
     FM260300 25012KT P6SM OVC100
     FM260900 25008KT P6SM BKN060 OVC100
     FM261100 27010KT P6SM -SHRA SCT025 OVC040 PROB30 2612/2613 6SM
      -RA OVC025
     FM261400 VRB03KT P6SM VCSH SCT025 BKN050
     FM261800 22008KT P6SM SCT025 SCT050
     FM262200 22012KT P6SM SCT050=

USA.gov is the U.S. government's official web portal to all federal, state and local government web resources and services.